Time;durP1;ratioP1;P1;durP2;ratioP2;P2;SDS_P1;SDS_P2;PMS_P1;PMS_P2;Temp;Humidity;BMP_temperature;BMP_pressure;BME280_temperature;BME280_humidity;BME280_pressure;Samples;Min_cycle;Max_cycle;Signal;HPM_P1;HPM_P2
2022/10/04 00:01:25;;;;;;;1.92;1.60;;;;;;;11.93;60.06;95140.00;5095516;28;20612;-70
2022/10/04 00:04:01;;;;;;;2.38;1.60;;;;;;;11.91;59.54;95147.88;5096649;28;20185;-70
2022/10/04 00:06:28;;;;;;;1.90;1.80;;;;;;;11.88;60.16;95139.50;5095410;28;20215;-71
2022/10/04 00:08:58;;;;;;;2.00;1.50;;;;;;;11.86;59.80;95139.03;5096502;28;20192;-71
2022/10/04 00:11:30;;;;;;;1.70;1.60;;;;;;;11.84;59.81;95139.41;5096381;28;20207;-70
2022/10/04 00:13:58;;;;;;;1.90;1.80;;;;;;;11.81;60.23;95143.66;5096452;28;20181;-70
2022/10/04 00:16:29;;;;;;;1.77;1.65;;;;;;;11.80;60.25;95142.06;5095458;28;20192;-70
2022/10/04 00:19:36;;;;;;;2.50;1.60;;;;;;;11.82;60.20;95136.97;5095348;28;20207;-70
2022/10/04 00:22:20;;;;;;;1.63;1.52;;;;;;;11.80;59.50;95144.84;5092317;28;20204;-70
2022/10/04 00:25:17;;;;;;;2.38;1.75;;;;;;;11.80;59.63;95136.53;5095948;28;20591;-70
2022/10/04 00:28:24;;;;;;;1.60;1.50;;;;;;;11.84;59.22;95130.31;5096020;28;20224;-70
2022/10/04 00:31:14;;;;;;;2.08;1.88;;;;;;;11.83;59.42;95123.94;5095630;28;20620;-70
2022/10/04 00:33:42;;;;;;;2.33;1.75;;;;;;;11.83;59.23;95129.47;5095366;28;20192;-70
2022/10/04 00:36:31;;;;;;;3.45;1.67;;;;;;;11.81;59.13;95126.28;5095663;28;20262;-70
2022/10/04 00:39:16;;;;;;;1.60;1.50;;;;;;;11.79;59.56;95117.53;5095596;28;20181;-70
2022/10/04 00:41:52;;;;;;;2.13;1.60;;;;;;;11.74;59.27;95118.63;5094649;28;20635;-70
2022/10/04 00:44:24;;;;;;;1.50;1.40;;;;;;;11.74;59.27;95121.38;5095726;28;20313;-70
2022/10/04 00:46:54;;;;;;;2.60;1.55;;;;;;;11.73;59.32;95113.47;5095382;28;20208;-70
2022/10/04 00:49:22;;;;;;;1.90;1.65;;;;;;;11.72;59.22;95114.59;5094479;28;20196;-70
2022/10/04 00:51:53;;;;;;;1.75;1.30;;;;;;;11.70;59.55;95101.16;5095678;28;20245;-71
2022/10/04 00:54:23;;;;;;;2.85;1.67;;;;;;;11.71;59.54;95107.50;5094781;28;20192;-71
2022/10/04 00:56:51;;;;;;;2.20;1.50;;;;;;;11.70;59.28;95111.41;5094397;28;20547;-70
2022/10/04 00:59:27;;;;;;;2.88;1.50;;;;;;;11.68;58.73;95103.47;5094600;28;20203;-70
2022/10/04 01:01:59;;;;;;;1.50;1.40;;;;;;;11.67;58.87;95103.84;5094670;28;20196;-70
2022/10/04 01:04:36;;;;;;;1.70;1.50;;;;;;;11.67;59.13;95104.63;5094781;28;20291;-71
2022/10/04 01:07:04;;;;;;;1.50;1.40;;;;;;;11.68;59.17;95103.47;5095090;28;20255;-70
2022/10/04 01:09:33;;;;;;;1.40;1.30;;;;;;;11.63;58.92;95101.00;5094782;28;20504;-71
2022/10/04 01:12:03;;;;;;;2.05;1.52;;;;;;;11.64;59.04;95099.81;5094491;28;20287;-71
2022/10/04 01:14:39;;;;;;;2.03;1.30;;;;;;;11.62;58.61;95095.81;5094600;28;20196;-70
2022/10/04 01:17:08;;;;;;;1.98;1.40;;;;;;;11.60;58.65;95100.91;5094617;28;20570;-70
2022/10/04 01:19:35;;;;;;;1.58;1.38;;;;;;;11.59;58.37;95099.31;5094975;28;20208;-71
2022/10/04 01:22:11;;;;;;;1.40;1.30;;;;;;;11.54;58.62;95098.41;5095420;28;20199;-70
2022/10/04 01:24:40;;;;;;;2.00;1.40;;;;;;;11.56;58.33;95095.31;5095403;28;20184;-70
2022/10/04 01:27:31;;;;;;;1.50;1.30;;;;;;;11.51;58.45;95101.91;5094234;28;20209;-70
2022/10/04 01:29:58;;;;;;;1.55;1.40;;;;;;;11.47;58.33;95095.47;5094693;28;20200;-70
2022/10/04 01:32:25;;;;;;;1.75;1.40;;;;;;;11.48;58.80;95097.09;5095529;28;20176;-70
2022/10/04 01:34:51;;;;;;;2.33;1.38;;;;;;;11.48;58.49;95096.31;5094964;28;20188;-70
2022/10/04 01:37:18;;;;;;;2.10;1.20;;;;;;;11.46;58.47;95098.59;5094659;28;20248;-70
2022/10/04 01:39:48;;;;;;;1.35;1.30;;;;;;;11.46;58.52;95088.34;5095008;28;20203;-70
2022/10/04 01:42:18;;;;;;;1.40;1.30;;;;;;;11.46;58.68;95096.63;5095406;28;20200;-70
2022/10/04 01:44:48;;;;;;;1.73;1.40;;;;;;;11.47;58.61;95091.91;5094202;28;20196;-70
2022/10/04 01:47:21;;;;;;;1.55;1.50;;;;;;;11.45;58.46;95095.03;5095281;28;20243;-70
2022/10/04 01:49:48;;;;;;;1.50;1.40;;;;;;;11.45;58.55;95089.53;5094134;28;20197;-71
2022/10/04 01:52:17;;;;;;;2.90;1.35;;;;;;;11.42;58.46;95087.47;5094410;28;20200;-70
2022/10/04 01:54:48;;;;;;;1.42;1.33;;;;;;;11.40;58.85;95095.34;5095033;28;20180;-70
2022/10/04 01:57:17;;;;;;;1.50;1.40;;;;;;;11.40;58.63;95094.50;5094482;28;20192;-70
2022/10/04 01:59:49;;;;;;;1.33;1.27;;;;;;;11.37;58.62;95092.47;5095243;28;20181;-70
2022/10/04 02:02:21;;;;;;;1.42;1.33;;;;;;;11.33;58.85;95098.72;5094934;28;20195;-70
2022/10/04 02:04:52;;;;;;;1.73;1.58;;;;;;;11.33;58.66;95097.91;5094131;28;20200;-70
2022/10/04 02:07:19;;;;;;;1.20;1.20;;;;;;;11.30;58.79;95104.16;5094936;28;20205;-70
2022/10/04 02:09:50;;;;;;;3.58;1.30;;;;;;;11.23;58.85;95099.25;5093861;28;20257;-70
2022/10/04 02:12:18;;;;;;;1.38;1.27;;;;;;;11.24;59.22;95103.59;5094184;28;20200;-70
2022/10/04 02:14:51;;;;;;;1.40;1.30;;;;;;;11.25;59.35;95096.91;5093885;28;20200;-70
2022/10/04 02:17:19;;;;;;;1.27;1.17;;;;;;;11.24;59.36;95094.53;5093851;28;20199;-70
2022/10/04 02:19:47;;;;;;;1.27;1.27;;;;;;;11.25;59.54;95101.63;5094015;28;20201;-70
2022/10/04 02:22:14;;;;;;;1.48;1.35;;;;;;;11.24;59.47;95102.81;5094012;28;20287;-70
2022/10/04 02:24:43;;;;;;;1.50;1.40;;;;;;;11.21;59.65;95111.78;5093795;28;20207;-70
2022/10/04 02:27:11;;;;;;;2.42;1.50;;;;;;;11.21;60.01;95109.03;5097726;28;20223;-70
2022/10/04 02:29:38;;;;;;;1.85;1.60;;;;;;;11.19;60.30;95109.41;5097279;28;20196;-70
2022/10/04 02:34:50;;;;;;;1.48;1.38;;;;;;;11.18;60.49;95127.09;5097103;28;20192;-70
2022/10/04 02:37:18;;;;;;;1.83;1.60;;;;;;;11.19;60.55;95117.69;5098331;28;20239;-70
2022/10/04 02:39:47;;;;;;;1.30;1.30;;;;;;;11.17;60.34;95111.69;5097056;28;20294;-70
2022/10/04 02:42:20;;;;;;;1.50;1.40;;;;;;;11.15;60.62;95105.75;5098160;28;20196;-70
2022/10/04 02:44:50;;;;;;;2.28;1.58;;;;;;;11.15;60.68;95113.19;5097028;28;20254;-70
2022/10/04 02:47:19;;;;;;;1.50;1.40;;;;;;;11.16;60.58;95129.44;5096518;28;20583;-70
2022/10/04 02:49:47;;;;;;;1.98;1.60;;;;;;;11.16;60.54;95128.63;5098256;28;20192;-70
2022/10/04 02:52:21;;;;;;;2.70;1.67;;;;;;;11.18;60.80;95137.34;5098028;28;20195;-70
2022/10/04 02:54:52;;;;;;;1.65;1.50;;;;;;;11.15;60.53;95132.53;5097821;28;20210;-70
2022/10/04 02:57:22;;;;;;;1.70;1.60;;;;;;;11.15;60.86;95143.56;5097641;28;20250;-70
2022/10/04 02:59:50;;;;;;;2.20;1.40;;;;;;;11.14;60.78;95142.78;5096770;28;20192;-70
2022/10/04 03:02:25;;;;;;;1.60;1.50;;;;;;;11.11;60.70;95124.19;5096820;28;20197;-70
2022/10/04 03:04:53;;;;;;;2.47;1.70;;;;;;;11.10;60.88;95133.59;5096752;28;20204;-70
2022/10/04 03:07:20;;;;;;;1.63;1.52;;;;;;;11.11;60.70;95139.91;5096680;28;20227;-69
2022/10/04 03:09:47;;;;;;;1.63;1.52;;;;;;;11.12;60.87;95141.53;5096740;28;20203;-70
2022/10/04 03:12:14;;;;;;;2.55;1.50;;;;;;;11.12;60.90;95147.88;5096895;28;20234;-68
2022/10/04 03:14:43;;;;;;;1.75;1.50;;;;;;;11.13;60.80;95141.19;5096522;28;20221;-70
2022/10/04 03:17:11;;;;;;;1.77;1.67;;;;;;;11.13;60.59;95143.13;5096731;28;20196;-70
2022/10/04 03:19:38;;;;;;;1.90;1.80;;;;;;;11.11;60.46;95142.69;5096240;28;20204;-69
2022/10/04 03:22:08;;;;;;;2.38;1.70;;;;;;;11.12;60.53;95141.53;5096545;28;20262;-69
2022/10/04 03:24:38;;;;;;;2.22;1.80;;;;;;;11.13;60.91;95154.97;5097292;28;20189;-69
2022/10/04 03:27:07;;;;;;;2.00;1.80;;;;;;;11.14;60.71;95151.06;5097086;28;20231;-70
2022/10/04 03:29:34;;;;;;;2.60;1.60;;;;;;;11.15;60.64;95160.97;5097093;28;20193;-70
2022/10/04 03:32:04;;;;;;;1.60;1.50;;;;;;;11.14;60.28;95161.28;5096190;28;20289;-70
2022/10/04 03:34:34;;;;;;;2.03;1.60;;;;;;;11.14;60.56;95164.06;5096912;28;20184;-70
2022/10/04 03:37:01;;;;;;;2.30;2.20;;;;;;;11.14;60.68;95162.09;5095088;28;20285;-70
2022/10/04 03:39:32;;;;;;;2.00;1.80;;;;;;;11.15;60.97;95160.13;5097290;28;20188;-70
2022/10/04 03:41:59;;;;;;;2.30;2.10;;;;;;;11.16;61.10;95161.75;5096491;28;20214;-70
2022/10/04 03:44:27;;;;;;;2.13;1.90;;;;;;;11.16;61.14;95170.84;5095690;28;20204;-70
2022/10/04 03:46:53;;;;;;;2.58;1.70;;;;;;;11.11;60.62;95173.88;5095956;28;20218;-70
2022/10/04 03:49:31;;;;;;;1.90;1.70;;;;;;;11.08;60.73;95166.28;5096790;28;20180;-70
2022/10/04 03:51:58;;;;;;;1.98;1.85;;;;;;;11.07;61.47;95164.66;5096882;28;20211;-70
2022/10/04 03:54:27;;;;;;;1.80;1.70;;;;;;;11.05;61.15;95156.75;5095666;28;20231;-70
2022/10/04 03:56:54;;;;;;;2.63;1.90;;;;;;;11.07;61.24;95159.97;5095744;28;20196;-70
2022/10/04 03:59:24;;;;;;;2.03;1.92;;;;;;;11.07;61.30;95165.50;5095965;28;20200;-70
2022/10/04 04:02:08;;;;;;;2.08;1.98;;;;;;;11.06;61.04;95160.31;5095626;28;20204;-70
2022/10/04 04:04:49;;;;;;;2.33;2.13;;;;;;;11.05;60.75;95169.75;5096370;28;20184;-70
2022/10/04 04:07:20;;;;;;;2.67;2.00;;;;;;;11.05;60.99;95164.22;5095573;28;20234;-70
2022/10/04 04:09:51;;;;;;;3.15;2.85;;;;;;;11.03;60.71;95169.28;5095605;28;20197;-70
2022/10/04 04:12:20;;;;;;;2.88;2.30;;;;;;;10.99;60.92;95179.44;5096356;28;20181;-70
2022/10/04 04:14:49;;;;;;;2.50;2.30;;;;;;;11.00;60.76;95181.03;5095349;28;20600;-70
2022/10/04 04:17:21;;;;;;;2.75;2.40;;;;;;;11.00;60.39;95183.78;5095500;28;20611;-70
2022/10/04 04:19:49;;;;;;;3.20;1.90;;;;;;;11.00;60.54;95181.03;5094395;28;20204;-70
2022/10/04 04:22:17;;;;;;;2.60;1.98;;;;;;;10.99;60.99;95190.47;5096218;28;20181;-69
2022/10/04 04:24:46;;;;;;;1.60;1.50;;;;;;;10.98;60.59;95186.91;5095284;28;20233;-69
2022/10/04 04:27:13;;;;;;;2.25;1.80;;;;;;;10.96;60.68;95191.19;5096318;28;20214;-69
2022/10/04 04:29:45;;;;;;;2.88;2.10;;;;;;;10.94;60.93;95197.06;5096119;28;20250;-69
2022/10/04 04:32:17;;;;;;;1.92;1.80;;;;;;;10.97;61.01;95190.03;5095156;28;20582;-69
2022/10/04 04:34:59;;;;;;;2.33;2.10;;;;;;;11.05;60.56;95200.91;5095265;28;20208;-69
2022/10/04 04:37:26;;;;;;;2.33;2.13;;;;;;;11.10;60.62;95199.84;5095579;28;20235;-73
2022/10/04 04:39:54;;;;;;;2.17;2.08;;;;;;;11.14;60.46;95202.69;5095125;28;20211;-73
2022/10/04 04:42:26;;;;;;;2.08;1.88;;;;;;;11.14;60.26;95197.97;5095079;28;20196;-73
2022/10/04 04:44:55;;;;;;;1.85;1.40;;;;;;;11.14;60.13;95202.69;5095486;28;20621;-72
2022/10/04 04:47:27;;;;;;;1.70;1.60;;;;;;;11.13;59.99;95204.66;5095167;28;20224;-72
2022/10/04 04:49:57;;;;;;;2.50;2.10;;;;;;;11.13;60.42;95196.38;5094684;28;20204;-73
2022/10/04 04:52:26;;;;;;;2.03;1.92;;;;;;;11.11;60.51;95200.66;5094870;28;20196;-73
2022/10/04 04:54:55;;;;;;;2.92;2.30;;;;;;;11.05;60.13;95209.19;5094603;28;20200;-73
2022/10/04 04:57:22;;;;;;;2.13;2.03;;;;;;;11.04;59.99;95207.59;5095371;28;20623;-73
2022/10/04 04:59:52;;;;;;;1.83;1.73;;;;;;;11.04;60.20;95217.84;5095481;28;20238;-73
2022/10/04 05:02:30;;;;;;;2.00;1.80;;;;;;;11.01;60.08;95213.03;5094746;28;20196;-73
2022/10/04 05:05:21;;;;;;;2.83;1.90;;;;;;;11.00;60.32;95203.09;5095234;28;20600;-73
2022/10/04 05:07:48;;;;;;;2.35;1.90;;;;;;;10.99;60.43;95207.03;5094437;28;20212;-72
2022/10/04 05:10:32;;;;;;;2.90;1.80;;;;;;;10.98;60.06;95213.72;5094379;28;20196;-73
2022/10/04 05:12:59;;;;;;;2.20;2.00;;;;;;;11.01;60.57;95213.03;5095063;28;20674;-73
2022/10/04 05:15:27;;;;;;;2.40;2.10;;;;;;;11.00;60.31;95214.16;5095616;28;20219;-73
2022/10/04 05:17:54;;;;;;;2.00;1.90;;;;;;;11.00;59.89;95217.75;5094706;28;20196;-74
2022/10/04 05:20:22;;;;;;;1.92;1.83;;;;;;;11.03;60.17;95216.22;5094390;28;20548;-73
2022/10/04 05:22:50;;;;;;;1.85;1.70;;;;;;;11.02;60.33;95222.91;5095327;28;20189;-73
2022/10/04 05:25:25;;;;;;;2.60;2.00;;;;;;;11.02;60.38;95218.16;5094448;28;20283;-73
2022/10/04 05:27:53;;;;;;;3.72;3.42;;;;;;;11.04;60.51;95218.63;5094526;28;20544;-73
2022/10/04 05:30:31;;;;;;;2.45;2.20;;;;;;;11.06;60.64;95227.34;5094994;28;20184;-73
2022/10/04 05:33:00;;;;;;;2.67;2.20;;;;;;;11.08;60.10;95232.53;5094346;28;20563;-73
2022/10/04 05:35:29;;;;;;;2.30;2.10;;;;;;;11.08;60.49;95241.63;5094324;28;20247;-73
2022/10/04 05:38:03;;;;;;;1.95;1.83;;;;;;;11.09;60.13;95234.94;5094998;28;20176;-73
2022/10/04 05:40:40;;;;;;;2.13;2.03;;;;;;;11.12;60.23;95230.69;5092565;28;20211;-73
2022/10/04 05:43:25;;;;;;;2.20;2.00;;;;;;;11.13;60.30;95235.03;5095570;28;20188;-73
2022/10/04 05:46:13;;;;;;;2.25;2.05;;;;;;;11.15;60.49;95234.66;5094317;28;20192;-73
2022/10/04 05:48:42;;;;;;;2.53;2.20;;;;;;;11.16;60.42;95233.53;5094691;28;20558;-74
2022/10/04 05:51:18;;;;;;;2.30;2.10;;;;;;;11.18;60.33;95239.50;5095131;28;20188;-73
2022/10/04 05:53:45;;;;;;;3.08;2.05;;;;;;;11.21;60.56;95249.81;5094985;28;20198;-74
2022/10/04 05:56:25;;;;;;;2.70;2.50;;;;;;;11.22;60.26;95246.72;5076977;28;20629;-74
2022/10/04 05:59:01;;;;;;;3.78;2.95;;;;;;;11.26;60.24;95253.16;5094236;28;20223;-74
2022/10/04 06:01:36;;;;;;;2.60;2.40;;;;;;;11.28;60.41;95261.06;5097403;28;20249;-71
2022/10/04 06:04:15;;;;;;;2.55;2.13;;;;;;;11.26;60.17;95258.69;5098901;28;20257;-74
2022/10/04 06:06:48;;;;;;;2.55;2.35;;;;;;;11.29;60.35;95266.25;5097649;28;20265;-71
2022/10/04 06:09:25;;;;;;;3.60;2.35;;;;;;;11.32;60.20;95271.03;5098418;28;20195;-72
2022/10/04 06:12:01;;;;;;;2.58;2.38;;;;;;;11.33;59.37;95269.13;5097498;28;20491;-72
2022/10/04 06:14:49;;;;;;;2.55;2.15;;;;;;;11.34;59.56;95276.25;5098781;28;20191;-72
2022/10/04 06:17:28;;;;;;;2.25;2.10;;;;;;;11.37;59.63;95278.28;5098737;28;20242;-70
2022/10/04 06:20:21;;;;;;;2.22;2.05;;;;;;;11.40;59.73;95277.59;5097803;28;20257;-70
2022/10/04 06:22:58;;;;;;;2.45;2.25;;;;;;;11.42;59.72;95282.75;5093819;28;20204;-70
2022/10/04 06:25:29;;;;;;;3.97;2.63;;;;;;;11.46;59.92;95280.88;5098715;28;20222;-71
2022/10/04 06:27:59;;;;;;;3.70;2.30;;;;;;;11.53;59.84;95287.41;5098465;28;20201;-72
2022/10/04 06:30:26;;;;;;;2.72;2.20;;;;;;;11.59;60.19;95299.00;5098528;28;20187;-71
2022/10/04 06:33:18;;;;;;;2.08;1.98;;;;;;;11.61;59.46;95287.59;5097270;28;20200;-70
2022/10/04 06:35:56;;;;;;;2.50;2.30;;;;;;;11.64;59.17;95286.91;5087946;28;20232;-69
2022/10/04 06:38:51;;;;;;;3.03;2.70;;;;;;;11.70;59.27;95291.00;5098334;28;20188;-69
2022/10/04 06:41:50;;;;;;;2.20;2.10;;;;;;;11.71;59.21;95292.59;5095987;28;20278;-68
2022/10/04 06:44:36;;;;;;;2.55;2.20;;;;;;;11.73;59.34;95291.09;5092806;28;20204;-69
2022/10/04 06:47:14;;;;;;;2.63;1.90;;;;;;;11.75;59.08;95293.50;5097328;28;20227;-72
2022/10/04 06:49:46;;;;;;;2.17;2.08;;;;;;;11.75;57.82;95299.03;5097900;28;20193;-70
2022/10/04 06:52:40;;;;;;;2.38;2.17;;;;;;;11.78;58.47;95301.88;5097785;28;20212;-71
2022/10/04 06:55:41;;;;;;;3.97;2.65;;;;;;;11.83;59.01;95298.03;5097950;28;20188;-71
2022/10/04 06:58:25;;;;;;;2.80;2.60;;;;;;;11.87;58.94;95306.47;5097040;28;20203;-71
2022/10/04 07:00:55;;;;;;;2.40;2.20;;;;;;;11.88;59.04;95308.88;5096999;28;20196;-71
2022/10/04 07:03:26;;;;;;;2.47;2.28;;;;;;;11.92;58.90;95309.78;5096968;28;20193;-72
2022/10/04 07:05:55;;;;;;;2.35;2.15;;;;;;;11.97;59.18;95312.25;5097233;28;20214;-70
2022/10/04 07:08:32;;;;;;;2.30;2.03;;;;;;;12.05;58.71;95304.94;5097139;28;20231;-71
2022/10/04 07:11:03;;;;;;;2.00;1.90;;;;;;;12.08;58.09;95320.03;5097329;28;20204;-70
2022/10/04 07:13:41;;;;;;;2.10;2.00;;;;;;;12.11;57.77;95316.56;5096617;28;20986;-68
2022/10/04 07:16:24;;;;;;;2.78;2.55;;;;;;;12.14;58.44;95311.13;5097184;28;20219;-67
2022/10/04 07:18:59;;;;;;;2.38;2.17;;;;;;;12.31;58.75;95314.66;5096446;28;20201;-69
2022/10/04 07:21:36;;;;;;;2.75;2.55;;;;;;;12.48;58.88;95315.09;5097129;28;20223;-69
2022/10/04 07:24:04;;;;;;;2.30;2.13;;;;;;;12.56;57.02;95313.31;5096817;28;20257;-70
2022/10/04 07:26:36;;;;;;;2.70;2.40;;;;;;;12.52;57.56;95313.22;5096492;28;20519;-69
2022/10/04 07:29:21;;;;;;;2.85;2.40;;;;;;;12.43;57.71;95328.41;5096414;28;20583;-69
2022/10/04 07:31:51;;;;;;;2.10;2.00;;;;;;;12.36;57.15;95319.94;5096658;28;20188;-69
2022/10/04 07:34:22;;;;;;;2.08;1.95;;;;;;;12.42;58.40;95329.59;5096596;28;20266;-68
2022/10/04 07:36:51;;;;;;;2.55;2.20;;;;;;;12.50;58.23;95323.84;5096256;28;20672;-69
2022/10/04 07:39:20;;;;;;;2.50;2.30;;;;;;;12.63;57.50;95320.97;5097076;28;20193;-69
2022/10/04 07:41:52;;;;;;;2.22;2.10;;;;;;;12.72;57.75;95333.47;5096383;28;20203;-69
2022/10/04 07:44:31;;;;;;;2.65;2.20;;;;;;;12.66;56.63;95343.19;5097001;28;20185;-69
2022/10/04 07:47:01;;;;;;;3.03;2.50;;;;;;;12.56;56.39;95338.19;5096066;28;20231;-69
2022/10/04 07:49:30;;;;;;;2.92;2.35;;;;;;;12.48;57.32;95340.00;5096914;28;20204;-69
2022/10/04 07:52:17;;;;;;;2.60;2.40;;;;;;;12.45;56.25;95337.94;5096197;28;20613;-69
2022/10/04 07:54:47;;;;;;;2.38;2.28;;;;;;;12.54;56.69;95337.78;5096042;28;20556;-69
2022/10/04 07:57:21;;;;;;;2.42;2.33;;;;;;;12.64;56.52;95347.50;5096799;28;20209;-69
2022/10/04 07:59:54;;;;;;;2.15;2.05;;;;;;;12.75;55.36;95352.13;5095510;28;20211;-69
2022/10/04 08:02:28;;;;;;;1.90;1.80;;;;;;;12.79;54.34;95346.66;5096845;28;20184;-69
2022/10/04 08:05:05;;;;;;;3.20;2.15;;;;;;;12.86;53.80;95346.81;5095414;28;20605;-69
2022/10/04 08:07:45;;;;;;;2.33;2.13;;;;;;;12.98;54.76;95348.66;5096262;28;20205;-69
2022/10/04 08:10:17;;;;;;;3.28;2.38;;;;;;;13.09;55.58;95348.91;5096611;28;20247;-69
2022/10/04 08:12:50;;;;;;;2.00;1.90;;;;;;;13.18;53.90;95350.31;5095532;28;20200;-69
2022/10/04 08:15:35;;;;;;;2.22;2.03;;;;;;;13.14;53.10;95345.84;5096330;28;20196;-69
2022/10/04 08:18:09;;;;;;;2.58;2.22;;;;;;;13.05;53.13;95348.03;5095485;28;20189;-69
2022/10/04 08:20:46;;;;;;;2.10;2.00;;;;;;;12.92;53.74;95344.56;5096574;28;20252;-69
2022/10/04 08:23:31;;;;;;;2.20;2.00;;;;;;;12.91;53.82;95338.22;5095561;28;20254;-69
2022/10/04 08:26:07;;;;;;;2.25;1.90;;;;;;;12.88;55.26;95340.91;5096328;28;20184;-69
2022/10/04 08:31:38;;;;;;;2.60;2.40;;;;;;;12.75;54.52;95341.03;5095949;28;20497;-69
2022/10/04 08:34:20;;;;;;;2.45;2.35;;;;;;;12.70;55.25;95341.31;5095383;28;20192;-70
2022/10/04 08:36:58;;;;;;;2.33;2.13;;;;;;;12.65;55.68;95343.56;5095079;28;20259;-69
2022/10/04 08:39:39;;;;;;;2.28;2.08;;;;;;;12.63;55.98;95341.13;5094871;28;20196;-69
2022/10/04 08:42:40;;;;;;;2.50;2.30;;;;;;;12.65;56.18;95335.25;5095637;28;20608;-69
2022/10/04 08:45:43;;;;;;;2.13;1.90;;;;;;;12.65;55.98;95338.03;5095863;28;20287;-69
2022/10/04 08:48:47;;;;;;;2.35;2.25;;;;;;;12.60;54.44;95354.88;5090944;28;20238;-69
2022/10/04 08:51:40;;;;;;;2.72;2.53;;;;;;;12.53;55.90;95348.03;5095134;28;20192;-68
2022/10/04 08:54:36;;;;;;;1.95;1.85;;;;;;;12.50;55.28;95354.28;5094978;28;20192;-69
2022/10/04 08:57:18;;;;;;;2.15;1.88;;;;;;;12.53;55.98;95352.78;5094985;28;20204;-68
2022/10/04 09:00:04;;;;;;;2.20;2.00;;;;;;;12.71;55.76;95351.22;5095777;28;20199;-69
2022/10/04 09:03:18;;;;;;;2.72;2.47;;;;;;;13.07;56.93;95346.50;5094787;28;20223;-68
2022/10/04 09:06:00;;;;;;;2.17;2.08;;;;;;;13.46;55.60;95352.88;4997487;28;20203;-69
2022/10/04 09:08:53;;;;;;;2.20;2.10;;;;;;;13.79;54.58;95353.53;5013960;28;20215;-69
2022/10/04 09:11:40;;;;;;;3.80;2.20;;;;;;;13.99;54.52;95352.34;4997639;28;20207;-69
2022/10/04 09:14:37;;;;;;;3.47;2.30;;;;;;;14.16;52.71;95343.56;4966359;28;20236;-68
2022/10/04 09:17:19;;;;;;;1.90;1.80;;;;;;;14.04;52.62;95337.38;5013568;28;20309;-69
2022/10/04 09:19:53;;;;;;;1.73;1.63;;;;;;;13.94;53.11;95333.22;4997226;28;20248;-68
2022/10/04 09:22:35;;;;;;;2.08;1.98;;;;;;;13.85;52.96;95339.00;5013672;28;20193;-69
2022/10/04 09:25:22;;;;;;;2.45;2.28;;;;;;;13.70;53.38;95348.22;5014010;28;20234;-69
2022/10/04 09:28:15;;;;;;;2.13;2.00;;;;;;;13.56;53.36;95347.94;4997283;28;20222;-69
2022/10/04 09:30:54;;;;;;;2.55;2.00;;;;;;;13.40;53.37;95340.50;5013577;28;20211;-69
2022/10/04 09:33:37;;;;;;;2.15;2.05;;;;;;;13.33;54.53;95345.09;4997019;28;20199;-69
2022/10/04 09:36:28;;;;;;;2.50;2.35;;;;;;;13.29;54.58;95336.72;5036249;28;20240;-69
2022/10/04 09:39:20;;;;;;;2.47;2.25;;;;;;;13.28;55.00;95354.47;5099081;28;20180;-69
2022/10/04 09:41:57;;;;;;;2.40;2.00;;;;;;;13.24;54.83;95348.06;5098561;28;20203;-68
2022/10/04 09:44:50;;;;;;;2.20;2.03;;;;;;;13.24;54.07;95361.91;5098226;28;20553;-68
2022/10/04 09:47:30;;;;;;;3.58;2.05;;;;;;;13.27;55.03;95350.13;5082340;28;20281;-68
2022/10/04 09:50:28;;;;;;;2.20;2.00;;;;;;;13.30;54.04;95360.47;5098597;28;20227;-68
2022/10/04 09:53:06;;;;;;;2.10;2.00;;;;;;;13.43;54.01;95350.03;5098599;28;20200;-67
2022/10/04 09:55:45;;;;;;;2.42;2.05;;;;;;;13.63;54.15;95353.63;5099048;28;20184;-68
2022/10/04 09:58:35;;;;;;;2.28;2.17;;;;;;;13.97;54.56;95344.38;5099239;28;20233;-66
2022/10/04 10:01:10;;;;;;;2.40;2.20;;;;;;;14.26;53.10;95344.88;5098644;28;20192;-67
2022/10/04 10:04:02;;;;;;;3.28;2.67;;;;;;;14.56;52.78;95347.81;5098231;28;20207;-67
2022/10/04 10:06:55;;;;;;;2.30;2.00;;;;;;;14.81;50.57;95341.84;5089898;28;20269;-67
2022/10/04 10:15:19;;;;;;;2.47;2.28;;;;;;;15.09;50.03;95341.47;5062105;28;20204;-67
2022/10/04 10:17:51;;;;;;;2.70;2.50;;;;;;;15.02;52.00;95333.03;5097690;28;20193;-67
2022/10/04 10:20:27;;;;;;;2.15;2.05;;;;;;;14.95;51.86;95341.25;5098772;28;20204;-67
2022/10/04 10:23:05;;;;;;;2.75;2.25;;;;;;;14.80;50.72;95346.59;5097687;28;20203;-67
2022/10/04 10:25:41;;;;;;;1.58;1.50;;;;;;;14.68;51.17;95347.63;5097523;28;20207;-67
2022/10/04 10:28:27;;;;;;;2.45;2.17;;;;;;;14.57;51.29;95354.19;5097850;28;20303;-67
2022/10/04 10:31:17;;;;;;;3.17;2.88;;;;;;;14.52;52.31;95343.38;5097192;28;20195;-67
2022/10/04 10:34:21;;;;;;;4.70;3.45;;;;;;;14.71;54.66;95343.31;5098295;28;20184;-67
2022/10/04 10:36:59;;;;;;;2.67;2.47;;;;;;;14.78;51.90;95342.59;5063267;28;20236;-67
2022/10/04 10:40:15;;;;;;;2.55;2.35;;;;;;;14.75;50.63;95343.34;5097016;28;20188;-68
2022/10/04 10:43:29;;;;;;;2.95;2.75;;;;;;;14.74;50.67;95350.06;5016252;28;20545;-68
2022/10/04 10:46:04;;;;;;;2.70;2.50;;;;;;;14.88;52.34;95345.53;5097220;28;20196;-68
2022/10/04 10:49:03;;;;;;;3.03;2.40;;;;;;;14.88;51.27;95339.16;5096953;28;20239;-68
2022/10/04 10:51:55;;;;;;;3.97;2.50;;;;;;;14.95;51.37;95344.03;5077403;28;20208;-68
2022/10/04 10:54:39;;;;;;;2.05;1.95;;;;;;;14.73;50.53;95349.25;5097995;28;20216;-67
2022/10/04 10:57:13;;;;;;;2.20;2.10;;;;;;;14.61;50.39;95343.94;5098059;28;20192;-67
2022/10/04 11:00:13;;;;;;;2.25;2.10;;;;;;;14.55;51.29;95340.66;5097860;28;20191;-67
2022/10/04 11:03:14;;;;;;;2.95;2.20;;;;;;;14.53;52.11;95354.13;5097460;28;20181;-67
2022/10/04 11:06:17;;;;;;;2.30;2.10;;;;;;;14.50;50.77;95354.84;5096673;28;20229;-67
2022/10/04 11:09:30;;;;;;;2.40;2.30;;;;;;;14.47;51.42;95346.44;5073113;28;20663;-67
2022/10/04 11:12:18;;;;;;;2.47;2.28;;;;;;;14.44;51.68;95353.53;5097621;28;20188;-67
2022/10/04 11:15:03;;;;;;;2.42;2.25;;;;;;;14.43;52.16;95352.72;5097403;28;20199;-67
2022/10/04 11:17:46;;;;;;;2.35;2.20;;;;;;;14.40;51.35;95344.34;5096667;28;20200;-67
2022/10/04 11:21:00;;;;;;;2.08;1.98;;;;;;;14.31;50.50;95352.13;5096580;28;20234;-67
2022/10/04 11:23:41;;;;;;;2.50;2.30;;;;;;;14.29;51.47;95355.25;5038116;28;20215;-67
2022/10/04 11:26:57;;;;;;;2.50;2.40;;;;;;;14.31;51.56;95349.34;5097318;28;20207;-67
2022/10/04 11:29:34;;;;;;;2.40;2.20;;;;;;;14.28;51.73;95347.31;5096211;28;20231;-67
2022/10/04 11:32:19;;;;;;;2.08;1.98;;;;;;;14.26;51.98;95353.22;5096894;28;20215;-67
2022/10/04 11:35:26;;;;;;;3.33;2.72;;;;;;;14.25;52.16;95348.84;5097061;28;20195;-67
2022/10/04 11:38:05;;;;;;;2.90;2.50;;;;;;;14.25;51.92;95356.38;5096284;28;20256;-67
2022/10/04 11:40:45;;;;;;;2.70;2.50;;;;;;;14.24;51.55;95355.56;5096093;28;20196;-72
2022/10/04 11:43:36;;;;;;;2.42;2.22;;;;;;;14.36;51.46;95354.56;5096654;28;20534;-73
2022/10/04 11:46:16;;;;;;;2.40;2.20;;;;;;;14.47;50.98;95349.22;5096947;28;20216;-72
2022/10/04 11:48:54;;;;;;;2.42;2.22;;;;;;;14.58;50.31;95345.47;5096972;28;20317;-72
2022/10/04 11:51:51;;;;;;;4.88;2.67;;;;;;;14.67;50.39;95350.78;5096508;28;20249;-72
2022/10/04 11:54:46;;;;;;;2.53;2.33;;;;;;;14.79;51.49;95358.09;5096841;28;20181;-71
2022/10/04 11:57:26;;;;;;;2.55;2.45;;;;;;;14.91;49.54;95349.53;5096346;28;20177;-72
2022/10/04 12:00:00;;;;;;;3.83;2.80;;;;;;;15.07;50.94;95343.81;5096592;28;20189;-72
2022/10/04 12:02:47;;;;;;;2.60;2.40;;;;;;;15.24;50.14;95342.47;5096790;28;20185;-72
2022/10/04 12:05:40;;;;;;;2.88;2.67;;;;;;;15.43;51.03;95347.88;5097239;28;20204;-72
2022/10/04 12:08:24;;;;;;;3.30;3.00;;;;;;;15.60;49.80;95347.31;5096412;28;20604;-72
2022/10/04 12:11:11;;;;;;;2.20;2.10;;;;;;;15.69;48.33;95341.50;5095807;28;20521;-71
2022/10/04 12:13:52;;;;;;;2.20;2.00;;;;;;;15.79;49.52;95342.78;5096767;28;20192;-72
2022/10/04 12:17:01;;;;;;;5.05;4.68;;;;;;;15.87;48.83;95347.25;5096454;28;20203;-70
2022/10/04 12:19:54;;;;;;;2.30;2.20;;;;;;;15.77;47.85;95351.50;5095520;28;20196;-70
2022/10/04 12:22:51;;;;;;;2.90;2.30;;;;;;;15.53;47.14;95347.22;5094896;28;20441;-70
2022/10/04 12:25:39;;;;;;;2.60;2.50;;;;;;;15.37;47.66;95346.63;5096243;28;20647;-69
2022/10/04 12:28:32;;;;;;;2.70;2.60;;;;;;;15.25;47.86;95352.38;5095959;28;20590;-69
2022/10/04 12:31:15;;;;;;;3.00;2.70;;;;;;;15.12;48.94;95351.84;5096235;28;20185;-69
2022/10/04 12:33:47;;;;;;;2.20;2.10;;;;;;;14.99;48.74;95356.78;5095512;28;20597;-70
2022/10/04 12:36:26;;;;;;;2.60;2.50;;;;;;;14.92;49.23;95363.06;5094870;28;20244;-70